Time;durP1;ratioP1;P1;durP2;ratioP2;P2;SDS_P1;SDS_P2;PMS_P1;PMS_P2;Temp;Humidity;BMP_temperature;BMP_pressure;BME280_temperature;BME280_humidity;BME280_pressure;Samples;Min_cycle;Max_cycle;Signal;HPM_P1;HPM_P2
2021/12/07 00:00:40;;;;;;;62.43;24.93;;;0.60;1.00;;;;;;5017325;28;20188;-54
2021/12/07 00:03:06;;;;;;;60.07;23.67;;;0.60;1.00;;;;;;5035205;28;20426;-54
2021/12/07 00:05:31;;;;;;;51.67;22.60;;;0.60;1.00;;;;;;5036382;28;20213;-54
2021/12/07 00:07:57;;;;;;;53.07;21.63;;;0.50;1.00;;;;;;5035883;28;20199;-54
2021/12/07 00:10:23;;;;;;;54.87;22.57;;;0.50;1.00;;;;;;5032926;28;20201;-54
2021/12/07 00:12:48;;;;;;;57.00;23.90;;;0.50;1.00;;;;;;5033445;28;20560;-54
2021/12/07 00:15:17;;;;;;;56.37;23.13;;;0.50;1.00;;;;;;5033575;28;20194;-52
2021/12/07 00:17:44;;;;;;;58.20;23.27;;;0.60;1.00;;;;;;5033365;28;20547;-52
2021/12/07 00:20:14;;;;;;;58.00;23.43;;;0.60;1.00;;;;;;5033162;28;20422;-53
2021/12/07 00:22:42;;;;;;;55.10;23.33;;;0.60;1.00;;;;;;5033515;28;20410;-52
2021/12/07 00:25:09;;;;;;;53.87;23.17;;;0.50;1.00;;;;;;5032983;28;20426;-53
2021/12/07 00:27:35;;;;;;;54.57;22.50;;;0.60;1.00;;;;;;5031234;28;20434;-53
2021/12/07 00:30:01;;;;;;;53.57;23.50;;;0.60;1.00;;;;;;5033381;28;20441;-53
2021/12/07 00:32:40;;;;;;;56.47;23.53;;;0.50;1.00;;;;;;5032762;28;20210;-53
2021/12/07 00:35:33;;;;;;;60.00;25.40;;;0.60;1.00;;;;;;5032746;28;20473;-52
2021/12/07 00:38:00;;;;;;;60.63;22.43;;;0.50;1.00;;;;;;5032489;28;20426;-52
2021/12/07 00:40:26;;;;;;;55.90;23.40;;;0.50;1.00;;;;;;5032814;28;20443;-52
2021/12/07 00:42:52;;;;;;;61.40;24.37;;;0.50;1.00;;;;;;5032905;28;20421;-52
2021/12/07 00:45:21;;;;;;;56.73;23.53;;;0.50;1.00;;;;;;5013613;28;20795;-52
2021/12/07 00:47:51;;;;;;;58.00;22.97;;;0.50;1.00;;;;;;5029734;28;20175;-52
2021/12/07 00:50:18;;;;;;;59.00;25.23;;;0.50;1.00;;;;;;5031314;28;20422;-52
2021/12/07 00:52:44;;;;;;;59.47;24.50;;;0.40;1.00;;;;;;5032935;28;20639;-52
2021/12/07 00:55:13;;;;;;;58.13;24.47;;;0.50;1.00;;;;;;5032311;28;20557;-51
2021/12/07 00:57:39;;;;;;;56.90;24.40;;;0.40;1.00;;;;;;5032625;28;20687;-52
2021/12/07 01:00:08;;;;;;;56.40;23.53;;;0.40;1.00;;;;;;5031522;28;20414;-52
2021/12/07 01:02:34;;;;;;;61.17;25.10;;;0.40;1.00;;;;;;5032022;28;20274;-52
2021/12/07 01:05:08;;;;;;;54.03;24.00;;;0.50;1.00;;;;;;5031776;28;20568;-52
2021/12/07 01:08:36;;;;;;;61.27;24.47;;;0.40;1.00;;;;;;5032525;28;20293;-53
2021/12/07 01:26:46;;;;;;;53.50;23.90;;;0.40;1.00;;;;;;5032286;28;20969;-54
2021/12/07 01:29:12;;;;;;;56.63;23.87;;;0.50;1.00;;;;;;5032080;28;20540;-54
2021/12/07 01:31:52;;;;;;;59.43;25.67;;;0.40;1.00;;;;;;5031593;28;20786;-54
2021/12/07 01:34:58;;;;;;;63.77;24.60;;;0.40;1.00;;;;;;5028522;28;20178;-54
2021/12/07 01:45:49;;;;;;;64.67;25.40;;;0.50;1.00;;;;;;5032468;28;20473;-53
2021/12/07 01:49:40;;;;;;;63.83;27.13;;;0.50;1.00;;;;;;5031921;28;20441;-54
2021/12/07 02:01:52;;;;;;;63.70;26.97;;;0.50;1.00;;;;;;5029495;28;20421;-53
2021/12/07 02:04:18;;;;;;;60.00;25.47;;;0.50;1.00;;;;;;5031993;28;20417;-53
2021/12/07 02:06:44;;;;;;;57.03;24.60;;;0.50;1.00;;;;;;5031611;28;20511;-53
2021/12/07 02:09:11;;;;;;;62.33;24.87;;;0.50;1.00;;;;;;5031356;28;20555;-53
2021/12/07 02:11:46;;;;;;;62.87;26.00;;;0.40;1.00;;;;;;5031010;28;20252;-53
2021/12/07 02:14:18;;;;;;;62.80;26.27;;;0.40;1.00;;;;;;5031626;28;20448;-53
2021/12/07 02:16:51;;;;;;;60.73;25.30;;;0.40;1.00;;;;;;5031378;28;20465;-54
2021/12/07 02:19:17;;;;;;;64.83;26.10;;;0.40;1.00;;;;;;5029279;28;20479;-53
2021/12/07 02:21:43;;;;;;;58.83;25.43;;;0.50;1.00;;;;;;5021956;28;20438;-53
2021/12/07 02:24:09;;;;;;;61.67;25.20;;;0.60;1.00;;;;;;5028721;28;20433;-54
2021/12/07 02:26:35;;;;;;;64.23;26.13;;;0.50;1.00;;;;;;5029452;28;20469;-54
2021/12/07 02:29:02;;;;;;;62.83;26.70;;;0.50;1.00;;;;;;5030734;28;20188;-53
2021/12/07 02:31:28;;;;;;;61.80;26.33;;;0.40;1.00;;;;;;5030804;28;20422;-53
2021/12/07 02:33:54;;;;;;;63.67;25.70;;;0.50;1.00;;;;;;5030930;28;20479;-53
2021/12/07 02:36:20;;;;;;;56.27;24.47;;;0.40;1.00;;;;;;5030420;28;20199;-53
2021/12/07 02:38:46;;;;;;;56.93;24.77;;;0.40;1.00;;;;;;5030504;28;20422;-53
2021/12/07 02:41:11;;;;;;;63.47;26.60;;;0.40;1.00;;;;;;5030882;28;20203;-54
2021/12/07 02:43:37;;;;;;;62.87;26.50;;;0.40;1.00;;;;;;5030620;28;20444;-54
2021/12/07 02:46:03;;;;;;;61.17;24.13;;;0.40;1.00;;;;;;5030898;28;20361;-54
2021/12/07 02:48:29;;;;;;;63.80;25.20;;;0.50;1.00;;;;;;5030723;28;20191;-55
2021/12/07 02:50:54;;;;;;;60.43;25.63;;;0.50;1.00;;;;;;5030472;28;20269;-53
2021/12/07 02:53:24;;;;;;;63.23;26.80;;;0.50;1.00;;;;;;5030620;28;20183;-54
2021/12/07 02:55:50;;;;;;;72.27;27.37;;;0.40;1.00;;;;;;5030671;28;20231;-53
2021/12/07 02:58:17;;;;;;;56.63;24.47;;;0.50;1.00;;;;;;5029294;28;20445;-53
2021/12/07 03:00:49;;;;;;;63.77;26.20;;;0.50;1.00;;;;;;5030507;28;20433;-54
2021/12/07 03:03:16;;;;;;;58.03;25.13;;;0.60;1.00;;;;;;5031063;28;20508;-54
2021/12/07 03:05:59;;;;;;;55.80;25.23;;;0.50;1.00;;;;;;5030171;28;20472;-54
2021/12/07 03:27:29;;;;;;;62.40;25.90;;;0.60;1.00;;;;;;5030196;28;20476;-54
2021/12/07 03:29:54;;;;;;;67.30;28.53;;;0.50;1.00;;;;;;5028906;28;20433;-54
2021/12/07 03:32:20;;;;;;;68.10;27.00;;;0.50;1.00;;;;;;5030691;28;20202;-53
2021/12/07 03:34:45;;;;;;;64.27;28.00;;;0.60;1.00;;;;;;5030732;28;20188;-53
2021/12/07 03:37:11;;;;;;;58.80;24.37;;;0.60;1.00;;;;;;5030292;28;20264;-53
2021/12/07 03:39:37;;;;;;;62.10;26.03;;;0.60;1.00;;;;;;5030180;28;20587;-53
2021/12/07 03:42:03;;;;;;;71.57;27.70;;;0.50;1.00;;;;;;5028831;28;20191;-53
2021/12/07 03:44:30;;;;;;;62.83;26.50;;;0.60;1.00;;;;;;5031360;28;20210;-53
2021/12/07 03:46:56;;;;;;;69.17;28.40;;;0.60;1.00;;;;;;5032715;28;20556;-53
2021/12/07 03:49:21;;;;;;;68.50;27.47;;;0.60;1.00;;;;;;5033777;28;20436;-54
2021/12/07 03:51:47;;;;;;;66.53;28.00;;;0.70;1.00;;;;;;5033799;28;20207;-53
2021/12/07 03:54:12;;;;;;;70.30;27.57;;;0.60;1.00;;;;;;5029127;28;20223;-53
2021/12/07 03:56:38;;;;;;;62.80;25.20;;;0.70;1.00;;;;;;5033160;28;20621;-54
2021/12/07 03:59:03;;;;;;;63.30;26.57;;;0.70;1.00;;;;;;5033666;28;20199;-54
2021/12/07 04:01:29;;;;;;;61.20;27.50;;;0.70;1.00;;;;;;5033325;28;20206;-53
2021/12/07 04:03:55;;;;;;;65.57;25.50;;;0.70;1.00;;;;;;5034160;28;20191;-54
2021/12/07 04:06:22;;;;;;;65.87;27.77;;;0.70;1.00;;;;;;5033072;28;20251;-54
2021/12/07 04:08:47;;;;;;;70.90;27.47;;;0.60;1.00;;;;;;5033310;28;20852;-54
2021/12/07 04:11:14;;;;;;;63.33;25.83;;;0.60;1.00;;;;;;5033456;28;20453;-53
2021/12/07 04:13:40;;;;;;;62.03;25.50;;;0.60;1.00;;;;;;5033901;28;20218;-53
2021/12/07 04:16:08;;;;;;;60.17;26.87;;;0.70;1.00;;;;;;5032869;28;20428;-53
2021/12/07 04:18:35;;;;;;;61.60;26.10;;;0.70;1.00;;;;;;5033519;28;20429;-55
2021/12/07 04:21:02;;;;;;;70.87;27.20;;;0.70;1.00;;;;;;5033841;28;20422;-55
2021/12/07 04:23:29;;;;;;;67.63;26.80;;;0.70;1.00;;;;;;5033187;28;20904;-53
2021/12/07 04:25:55;;;;;;;64.57;27.27;;;0.70;1.00;;;;;;5033140;28;20535;-54
2021/12/07 04:28:21;;;;;;;59.80;24.93;;;0.70;1.00;;;;;;5032492;28;20907;-53
2021/12/07 04:30:46;;;;;;;66.27;27.53;;;0.70;1.00;;;;;;5033013;28;20187;-54
2021/12/07 04:33:13;;;;;;;62.00;25.97;;;0.70;1.00;;;;;;5033011;28;20211;-58
2021/12/07 04:35:43;;;;;;;63.33;28.07;;;0.80;1.00;;;;;;5032833;28;20555;-53
2021/12/07 04:38:09;;;;;;;70.60;27.27;;;0.70;1.00;;;;;;5033536;28;20425;-53
2021/12/07 04:40:35;;;;;;;62.77;26.03;;;0.70;1.00;;;;;;5033128;28;20422;-53
2021/12/07 04:43:02;;;;;;;71.60;27.03;;;0.80;1.00;;;;;;5033093;28;20187;-53
2021/12/07 04:48:36;;;;;;;59.90;25.80;;;0.80;1.00;;;;;;5033017;28;20919;-54
2021/12/07 04:59:12;;;;;;;58.50;25.73;;;0.80;1.00;;;;;;5032307;28;20776;-54
2021/12/07 05:01:37;;;;;;;65.27;27.00;;;0.80;1.00;;;;;;5031350;28;20425;-54
2021/12/07 05:04:10;;;;;;;64.77;25.67;;;0.80;1.00;;;;;;5032280;28;20229;-54
2021/12/07 05:06:41;;;;;;;66.77;28.20;;;0.80;1.00;;;;;;5032384;28;20469;-53
2021/12/07 05:09:29;;;;;;;74.40;27.43;;;0.90;1.00;;;;;;5032393;28;20430;-53
2021/12/07 05:12:18;;;;;;;60.90;25.60;;;0.80;1.00;;;;;;5032544;28;20544;-54
2021/12/07 05:14:42;;;;;;;63.00;25.27;;;0.90;1.00;;;;;;5032831;28;20436;-53
2021/12/07 05:17:29;;;;;;;65.47;25.00;;;0.80;1.00;;;;;;5032333;28;20437;-53
2021/12/07 05:39:06;;;;;;;67.27;25.40;;;0.80;1.00;;;;;;5032255;28;20433;-53
2021/12/07 05:41:31;;;;;;;56.80;24.57;;;0.90;1.00;;;;;;5030796;28;20425;-54
2021/12/07 05:43:57;;;;;;;61.47;26.70;;;0.90;1.00;;;;;;5030994;28;20911;-54
2021/12/07 05:46:23;;;;;;;60.27;26.00;;;0.80;1.00;;;;;;5032018;28;20299;-53
2021/12/07 05:48:48;;;;;;;59.30;24.00;;;0.80;1.00;;;;;;5031294;28;20257;-54
2021/12/07 05:51:14;;;;;;;61.07;24.40;;;0.90;1.00;;;;;;5031692;28;20751;-53
2021/12/07 05:53:40;;;;;;;58.80;24.40;;;0.90;1.00;;;;;;5031620;28;20629;-54
2021/12/07 05:56:05;;;;;;;62.53;24.47;;;0.90;1.00;;;;;;5030932;28;20298;-54
2021/12/07 05:58:31;;;;;;;60.30;23.77;;;0.80;1.00;;;;;;5031747;28;20218;-54
2021/12/07 06:00:58;;;;;;;59.93;24.87;;;0.80;1.00;;;;;;5030546;28;20176;-53
2021/12/07 06:03:25;;;;;;;58.67;24.13;;;0.80;1.00;;;;;;5031560;28;20199;-54
2021/12/07 06:05:52;;;;;;;59.60;24.63;;;0.90;1.00;;;;;;5031440;28;20557;-53
2021/12/07 06:08:17;;;;;;;59.50;24.60;;;0.90;1.00;;;;;;5030830;28;20426;-54
2021/12/07 06:10:43;;;;;;;56.00;24.73;;;0.90;1.00;;;;;;5030568;28;20429;-54
2021/12/07 06:13:09;;;;;;;53.07;23.27;;;0.90;1.00;;;;;;5031234;28;20198;-53
2021/12/07 06:15:36;;;;;;;62.10;24.40;;;0.90;1.00;;;;;;5031537;28;20187;-54
2021/12/07 06:18:02;;;;;;;57.27;24.03;;;0.90;1.00;;;;;;5030423;28;20183;-53
2021/12/07 06:20:29;;;;;;;58.67;25.60;;;0.90;1.00;;;;;;5031509;28;20422;-53
2021/12/07 06:22:54;;;;;;;61.33;25.00;;;0.90;1.00;;;;;;5031417;28;21246;-60
2021/12/07 06:25:20;;;;;;;55.33;24.00;;;0.90;1.00;;;;;;5030974;28;20429;-54
2021/12/07 06:27:46;;;;;;;55.80;24.07;;;0.90;1.00;;;;;;5030813;28;20281;-53
2021/12/07 06:30:13;;;;;;;57.20;25.50;;;0.90;1.00;;;;;;5030331;28;20198;-53
2021/12/07 06:32:39;;;;;;;54.17;23.50;;;0.90;1.00;;;;;;5031230;28;20184;-54
2021/12/07 06:35:07;;;;;;;64.67;24.67;;;0.90;1.00;;;;;;5030606;28;20902;-54
2021/12/07 06:37:32;;;;;;;50.77;22.23;;;0.90;1.00;;;;;;5030662;28;20866;-54
2021/12/07 06:39:58;;;;;;;52.13;22.00;;;0.90;1.00;;;;;;5030710;28;20438;-54
2021/12/07 06:42:24;;;;;;;52.43;24.60;;;0.90;1.00;;;;;;5030864;28;20195;-53
2021/12/07 06:44:49;;;;;;;63.67;25.37;;;1.00;1.00;;;;;;5022534;28;20192;-53
2021/12/07 06:47:15;;;;;;;55.10;24.57;;;1.00;1.00;;;;;;5025089;28;20227;-53
2021/12/07 06:49:41;;;;;;;60.43;23.63;;;0.90;1.00;;;;;;5031614;28;20254;-54
2021/12/07 06:52:07;;;;;;;54.87;22.43;;;0.90;1.00;;;;;;5030755;28;20188;-53
2021/12/07 06:54:33;;;;;;;49.87;23.00;;;0.90;1.00;;;;;;5030949;28;20481;-54
2021/12/07 06:56:58;;;;;;;56.50;22.77;;;1.00;1.00;;;;;;5030317;28;20175;-53
2021/12/07 06:59:24;;;;;;;54.77;23.53;;;1.00;1.00;;;;;;5031180;28;20187;-54
2021/12/07 07:01:50;;;;;;;55.33;23.47;;;1.00;1.00;;;;;;5030283;28;20206;-54
2021/12/07 07:04:15;;;;;;;49.23;21.60;;;1.00;1.00;;;;;;5030113;28;20225;-54
2021/12/07 07:06:42;;;;;;;52.63;22.53;;;1.00;1.00;;;;;;5031309;28;20465;-54
2021/12/07 07:09:09;;;;;;;48.70;22.00;;;1.00;1.00;;;;;;5031045;28;20203;-53
2021/12/07 07:11:35;;;;;;;56.70;24.10;;;1.00;1.00;;;;;;5030667;28;20430;-54
2021/12/07 07:14:01;;;;;;;58.33;22.83;;;1.00;1.00;;;;;;5026993;28;20433;-54
2021/12/07 07:16:27;;;;;;;47.10;21.40;;;1.00;1.00;;;;;;5028986;28;20664;-54
2021/12/07 07:18:53;;;;;;;52.90;21.70;;;0.90;1.00;;;;;;5026079;28;20527;-54
2021/12/07 07:21:19;;;;;;;52.60;21.60;;;0.90;1.00;;;;;;5026910;28;20444;-54
2021/12/07 07:23:45;;;;;;;50.90;22.33;;;0.90;1.00;;;;;;5034786;28;20425;-54
2021/12/07 07:26:11;;;;;;;50.13;21.83;;;0.90;1.00;;;;;;5034264;28;20222;-54
2021/12/07 07:28:37;;;;;;;50.67;22.80;;;0.90;1.00;;;;;;5034433;28;20662;-54
2021/12/07 07:31:05;;;;;;;55.03;23.57;;;0.90;1.00;;;;;;5035119;28;20269;-55
2021/12/07 07:33:31;;;;;;;54.80;22.80;;;0.90;1.00;;;;;;5034127;28;20931;-54
2021/12/07 07:35:57;;;;;;;49.97;22.17;;;0.90;1.00;;;;;;5029828;28;20473;-54
2021/12/07 07:38:22;;;;;;;52.20;20.80;;;1.00;1.00;;;;;;5034342;28;20620;-55
2021/12/07 07:40:48;;;;;;;53.20;21.40;;;1.00;1.00;;;;;;5034450;28;20195;-63
2021/12/07 07:43:16;;;;;;;54.93;22.93;;;0.90;1.00;;;;;;5034822;28;20282;-54
2021/12/07 07:45:46;;;;;;;53.33;24.47;;;1.00;1.00;;;;;;5034462;28;20209;-54
2021/12/07 07:48:12;;;;;;;58.50;22.70;;;1.00;1.00;;;;;;5033329;28;20433;-54
2021/12/07 07:50:38;;;;;;;54.30;21.87;;;1.00;1.00;;;;;;5034195;28;20402;-55
2021/12/07 07:53:04;;;;;;;56.63;22.73;;;1.00;1.00;;;;;;5034299;28;20791;-55
2021/12/07 07:55:30;;;;;;;47.40;21.73;;;1.00;1.00;;;;;;5033997;28;20302;-54
2021/12/07 07:57:56;;;;;;;51.27;22.67;;;0.90;1.00;;;;;;5034499;28;20464;-55
2021/12/07 08:00:23;;;;;;;59.07;24.43;;;0.90;1.00;;;;;;5034335;28;20422;-54
2021/12/07 08:02:49;;;;;;;47.93;21.13;;;1.00;1.00;;;;;;5034204;28;20629;-54
2021/12/07 08:05:16;;;;;;;52.57;21.43;;;1.10;1.00;;;;;;5032618;28;20434;-55
2021/12/07 08:07:46;;;;;;;58.83;23.40;;;1.00;1.00;;;;;;5033412;28;20465;-55
2021/12/07 08:10:14;;;;;;;54.63;22.07;;;1.10;1.00;;;;;;5032800;28;20425;-54
2021/12/07 08:12:39;;;;;;;54.43;23.57;;;1.00;1.00;;;;;;5033276;28;20433;-54
2021/12/07 08:15:06;;;;;;;50.33;22.40;;;1.10;1.00;;;;;;5033940;28;20433;-55
2021/12/07 08:17:31;;;;;;;60.67;22.33;;;1.10;1.00;;;;;;5033084;28;20195;-54
2021/12/07 08:19:57;;;;;;;50.67;23.43;;;1.10;1.00;;;;;;5033820;28;20415;-54
2021/12/07 08:22:22;;;;;;;46.10;21.23;;;1.10;1.00;;;;;;5033615;28;20198;-54
2021/12/07 08:24:49;;;;;;;52.27;23.63;;;1.10;1.00;;;;;;5033713;28;20195;-55
2021/12/07 08:27:15;;;;;;;53.13;22.83;;;1.10;1.00;;;;;;5034055;28;20672;-54
2021/12/07 08:29:40;;;;;;;55.93;22.10;;;1.10;1.00;;;;;;5032944;28;20523;-54
2021/12/07 08:32:06;;;;;;;49.50;21.97;;;1.00;1.00;;;;;;5020071;28;20269;-59
2021/12/07 08:34:32;;;;;;;53.03;21.83;;;1.10;1.00;;;;;;5024579;28;20274;-54
2021/12/07 08:36:57;;;;;;;53.13;22.43;;;1.10;1.00;;;;;;5033255;28;21266;-55
2021/12/07 08:39:23;;;;;;;51.87;22.13;;;1.20;1.00;;;;;;5033639;28;20206;-54
2021/12/07 08:41:48;;;;;;;50.53;22.10;;;1.20;1.00;;;;;;5033680;28;20219;-54
2021/12/07 08:44:14;;;;;;;52.53;22.57;;;1.20;1.00;;;;;;5033295;28;20341;-53
2021/12/07 08:46:40;;;;;;;50.73;23.13;;;1.30;1.00;;;;;;5031798;28;20248;-52
2021/12/07 08:49:06;;;;;;;56.17;23.67;;;1.30;1.00;;;;;;5020851;28;20218;-52
2021/12/07 08:51:31;;;;;;;57.17;23.27;;;1.20;1.00;;;;;;5013495;28;20551;-52
2021/12/07 08:54:15;;;;;;;47.37;22.00;;;1.20;1.00;;;;;;5015792;28;20223;-52
2021/12/07 08:59:44;;;;;;;52.83;22.03;;;1.30;1.00;;;;;;5033207;28;20440;-55
2021/12/07 09:02:11;;;;;;;57.17;23.40;;;1.30;1.00;;;;;;5033104;28;20421;-55
2021/12/07 09:04:37;;;;;;;55.03;23.57;;;1.30;1.00;;;;;;5033127;28;20513;-55
2021/12/07 09:07:05;;;;;;;52.10;22.43;;;1.30;1.00;;;;;;5032995;28;20505;-54
2021/12/07 09:09:31;;;;;;;57.63;23.17;;;1.30;1.00;;;;;;5032907;28;20183;-54
2021/12/07 09:11:56;;;;;;;56.57;23.50;;;1.40;1.00;;;;;;5033031;28;20457;-54
2021/12/07 09:14:23;;;;;;;51.20;23.03;;;1.40;1.00;;;;;;5032621;28;20461;-59
2021/12/07 09:16:48;;;;;;;55.27;25.13;;;1.40;1.00;;;;;;5033296;28;20203;-54
2021/12/07 09:19:14;;;;;;;56.17;23.53;;;1.50;1.00;;;;;;5032611;28;20476;-55
2021/12/07 09:21:40;;;;;;;53.83;22.33;;;1.50;1.00;;;;;;5033010;28;20198;-54
2021/12/07 09:24:06;;;;;;;60.57;24.57;;;1.60;1.00;;;;;;5032701;28;20543;-56
2021/12/07 09:26:32;;;;;;;55.63;23.53;;;1.60;1.00;;;;;;5032463;28;20461;-53
2021/12/07 09:28:57;;;;;;;51.83;21.77;;;1.60;1.00;;;;;;5032043;28;20201;-52
2021/12/07 09:31:23;;;;;;;57.60;23.60;;;1.60;1.00;;;;;;5031240;28;20433;-53
2021/12/07 09:33:49;;;;;;;58.30;25.30;;;1.70;1.00;;;;;;5031988;28;20186;-53
2021/12/07 09:36:15;;;;;;;57.13;24.30;;;1.70;1.00;;;;;;5032569;28;20425;-53
2021/12/07 09:38:41;;;;;;;54.37;24.50;;;1.60;1.00;;;;;;5032028;28;21205;-53
2021/12/07 09:41:10;;;;;;;63.47;24.50;;;1.60;1.00;;;;;;5031844;28;20252;-53
2021/12/07 09:43:36;;;;;;;62.23;25.00;;;1.60;1.00;;;;;;5030735;28;20433;-53
2021/12/07 09:46:06;;;;;;;60.83;25.23;;;1.70;1.00;;;;;;5027285;28;20563;-53
2021/12/07 09:48:31;;;;;;;58.70;24.70;;;1.60;1.00;;;;;;5028866;28;20858;-53
2021/12/07 09:50:57;;;;;;;54.17;22.97;;;1.60;1.00;;;;;;5032363;28;20398;-53
2021/12/07 09:53:24;;;;;;;52.73;23.63;;;1.60;1.00;;;;;;5030988;28;20548;-53
2021/12/07 09:55:51;;;;;;;61.50;24.47;;;1.70;1.00;;;;;;5031291;28;20239;-53
2021/12/07 09:58:17;;;;;;;56.67;24.47;;;1.60;1.00;;;;;;5031951;28;20763;-53
2021/12/07 10:00:44;;;;;;;58.27;25.97;;;1.70;1.00;;;;;;5031155;28;20536;-58
2021/12/07 10:03:10;;;;;;;56.30;24.07;;;1.70;1.00;;;;;;5031849;28;20414;-57
2021/12/07 10:05:39;;;;;;;59.57;24.53;;;1.70;1.00;;;;;;5030234;28;20458;-56
2021/12/07 10:08:05;;;;;;;54.47;23.17;;;1.70;1.00;;;;;;5029874;28;20529;-53
2021/12/07 10:10:39;;;;;;;55.53;24.27;;;1.70;1.00;;;;;;5031466;28;20418;-52
2021/12/07 10:13:07;;;;;;;56.40;25.50;;;1.70;1.00;;;;;;5030755;28;20430;-53
2021/12/07 10:15:32;;;;;;;56.30;24.00;;;1.70;1.00;;;;;;5031537;28;20441;-53
2021/12/07 10:18:01;;;;;;;54.30;23.97;;;1.70;1.00;;;;;;5031041;28;20767;-53
2021/12/07 10:20:42;;;;;;;55.90;23.00;;;1.90;1.00;;;;;;5030827;28;20176;-53
2021/12/07 10:23:14;;;;;;;55.40;24.07;;;2.00;1.00;;;;;;5030608;28;20931;-53
2021/12/07 10:25:41;;;;;;;57.53;24.43;;;2.00;1.00;;;;;;5031334;28;20525;-53
2021/12/07 10:28:32;;;;;;;48.97;22.83;;;2.00;1.00;;;;;;5030413;28;20440;-53
2021/12/07 10:31:04;;;;;;;59.20;24.33;;;2.00;1.00;;;;;;5029074;28;21123;-53
2021/12/07 10:33:38;;;;;;;58.03;25.60;;;2.10;1.00;;;;;;5029306;28;20492;-53
2021/12/07 10:36:18;;;;;;;54.87;23.97;;;2.10;1.00;;;;;;5028809;28;20472;-53
2021/12/07 10:38:52;;;;;;;60.30;25.20;;;2.10;1.00;;;;;;5030223;28;20429;-53
2021/12/07 10:41:22;;;;;;;56.07;23.90;;;2.20;1.00;;;;;;5030691;28;20526;-54
2021/12/07 10:44:24;;;;;;;56.47;23.73;;;2.20;1.00;;;;;;5027550;28;20496;-60
2021/12/07 10:47:01;;;;;;;63.13;25.47;;;2.10;1.00;;;;;;4948704;29;20473;-53
2021/12/07 10:49:27;;;;;;;55.93;24.07;;;2.20;99.90;;;;;;5021614;28;20460;-52
2021/12/07 10:52:04;;;;;;;53.53;24.00;;;2.20;99.90;;;;;;5024118;28;20772;-53
2021/12/07 10:54:33;;;;;;;51.60;23.30;;;2.00;1.00;;;;;;5023286;28;20527;-53
2021/12/07 10:57:02;;;;;;;57.37;23.47;;;2.10;1.00;;;;;;5030294;28;21096;-53
2021/12/07 10:59:28;;;;;;;58.53;24.47;;;2.00;1.00;;;;;;5029257;28;20444;-53
2021/12/07 11:01:54;;;;;;;56.57;23.97;;;2.00;1.00;;;;;;5030230;28;20441;-54
2021/12/07 11:04:36;;;;;;;57.37;24.37;;;2.10;1.00;;;;;;5030806;28;20224;-53
2021/12/07 11:07:20;;;;;;;52.63;23.30;;;2.10;1.00;;;;;;5030812;28;20468;-54
2021/12/07 11:10:10;;;;;;;57.17;22.70;;;2.10;1.00;;;;;;5030621;28;20571;-53
2021/12/07 11:12:50;;;;;;;54.90;24.50;;;2.20;1.00;;;;;;5029982;28;20473;-53
2021/12/07 11:15:23;;;;;;;57.20;25.70;;;2.30;1.00;;;;;;5027205;28;20434;-53
2021/12/07 11:17:49;;;;;;;57.73;24.17;;;2.20;99.90;;;;;;5029889;28;20433;-53
2021/12/07 11:20:15;;;;;;;57.17;23.20;;;2.30;99.90;;;;;;5030046;28;20452;-53
2021/12/07 11:22:50;;;;;;;49.23;22.17;;;2.30;99.90;;;;;;5030421;28;20433;-53
2021/12/07 11:25:53;;;;;;;55.40;23.33;;;2.30;99.90;;;;;;5030778;28;20179;-53
2021/12/07 11:31:21;;;;;;;48.47;22.17;;;2.40;99.90;;;;;;5030782;28;20460;-53
2021/12/07 11:33:49;;;;;;;54.20;23.77;;;2.40;99.90;;;;;;5030059;28;20468;-53
2021/12/07 11:36:24;;;;;;;50.90;23.37;;;2.40;99.90;;;;;;5030766;28;20492;-54
2021/12/07 11:38:51;;;;;;;55.70;23.70;;;2.40;99.90;;;;;;5029863;28;20433;-53
2021/12/07 11:41:21;;;;;;;58.43;24.23;;;2.40;99.90;;;;;;5023575;28;20433;-53
2021/12/07 11:44:03;;;;;;;55.60;23.63;;;2.50;99.90;;;;;;5026343;28;20923;-53
2021/12/07 11:46:32;;;;;;;53.70;23.70;;;2.40;99.90;;;;;;5017317;28;20477;-54
2021/12/07 11:49:28;;;;;;;47.97;21.70;;;2.50;99.90;;;;;;5023792;28;20452;-55
2021/12/07 11:51:57;;;;;;;52.63;24.63;;;2.60;99.90;;;;;;5023201;28;20473;-55
2021/12/07 11:54:27;;;;;;;54.43;23.43;;;2.60;99.90;;;;;;5023717;28;20479;-57
2021/12/07 11:56:53;;;;;;;54.17;24.13;;;2.60;99.90;;;;;;5027151;28;20437;-54
2021/12/07 11:59:19;;;;;;;55.13;24.13;;;2.70;99.90;;;;;;5030595;28;20532;-54
2021/12/07 12:01:47;;;;;;;49.43;22.80;;;2.70;99.90;;;;;;5029673;28;20528;-54
2021/12/07 12:04:14;;;;;;;51.27;23.07;;;2.60;99.90;;;;;;5030480;28;20679;-54
2021/12/07 12:06:42;;;;;;;53.70;23.37;;;2.60;99.90;;;;;;5032778;28;20519;-55
2021/12/07 12:09:08;;;;;;;51.53;23.23;;;2.60;99.90;;;;;;5033284;28;20922;-54
2021/12/07 12:11:51;;;;;;;58.97;24.87;;;2.60;99.90;;;;;;5021170;28;20446;-54
2021/12/07 12:14:50;;;;;;;51.57;23.70;;;2.60;99.90;;;;;;5017914;28;20436;-54
2021/12/07 12:17:51;;;;;;;53.47;23.47;;;2.50;99.90;;;;;;5032659;28;20468;-55
2021/12/07 12:20:34;;;;;;;59.20;23.77;;;2.60;99.90;;;;;;5039341;28;20507;-55
2021/12/07 12:23:10;;;;;;;52.30;22.73;;;2.60;99.90;;;;;;5033909;28;20426;-55
2021/12/07 12:25:37;;;;;;;53.63;22.23;;;2.70;99.90;;;;;;5033518;28;20425;-55
2021/12/07 12:28:03;;;;;;;54.70;24.00;;;2.70;99.90;;;;;;5034001;28;20472;-55
2021/12/07 12:30:37;;;;;;;59.00;24.60;;;2.70;99.90;;;;;;5033208;28;20422;-54
2021/12/07 12:33:10;;;;;;;48.33;22.90;;;2.70;99.90;;;;;;5033609;28;20910;-55
2021/12/07 12:35:41;;;;;;;52.37;23.40;;;2.80;99.90;;;;;;5033876;28;20410;-55
2021/12/07 12:38:25;;;;;;;68.07;24.60;;;2.70;99.90;;;;;;5033734;28;20440;-55
2021/12/07 12:40:59;;;;;;;49.83;23.00;;;2.60;99.90;;;;;;5033339;28;20925;-55
2021/12/07 12:43:51;;;;;;;58.43;23.93;;;2.60;99.90;;;;;;5020807;28;20986;-55
2021/12/07 12:46:20;;;;;;;61.57;24.83;;;2.70;99.90;;;;;;5033606;28;20454;-55
2021/12/07 12:48:52;;;;;;;57.20;23.00;;;2.60;99.90;;;;;;5031450;28;20441;-58
2021/12/07 12:51:19;;;;;;;57.53;24.73;;;2.50;99.90;;;;;;5031682;28;20434;-54
2021/12/07 12:53:47;;;;;;;51.63;22.70;;;2.60;99.90;;;;;;5014143;28;20430;-55
2021/12/07 12:56:17;;;;;;;56.43;23.87;;;2.60;99.90;;;;;;5027772;28;20967;-55
2021/12/07 12:58:47;;;;;;;54.63;23.97;;;2.60;99.90;;;;;;5033301;28;20917;-54
2021/12/07 13:01:19;;;;;;;53.80;23.37;;;2.60;99.90;;;;;;5034143;28;20402;-55
2021/12/07 13:03:46;;;;;;;53.13;23.20;;;2.70;99.90;;;;;;5032472;28;20438;-55
2021/12/07 13:06:19;;;;;;;55.80;23.43;;;2.70;99.90;;;;;;5032386;28;20466;-52
2021/12/07 13:09:08;;;;;;;59.93;23.97;;;2.80;99.90;;;;;;5033054;28;20453;-53
2021/12/07 13:11:42;;;;;;;61.53;24.90;;;2.70;99.90;;;;;;5021101;28;20774;-52
2021/12/07 13:14:27;;;;;;;55.40;23.63;;;2.70;99.90;;;;;;5013056;28;20421;-52
2021/12/07 13:17:13;;;;;;;55.23;24.23;;;2.70;99.90;;;;;;5013172;28;20437;-52
2021/12/07 13:20:03;;;;;;;51.97;21.90;;;2.70;99.90;;;;;;5013089;28;20414;-52
2021/12/07 13:22:39;;;;;;;52.10;23.30;;;2.70;1.00;;;;;;5013165;28;20776;-52
2021/12/07 13:25:25;;;;;;;54.40;23.87;;;2.70;1.00;;;;;;5013062;28;20414;-53
2021/12/07 13:28:04;;;;;;;54.90;23.23;;;2.70;1.00;;;;;;5012998;28;20447;-52
2021/12/07 13:30:45;;;;;;;57.47;24.70;;;2.70;1.00;;;;;;5019633;28;20433;-53
2021/12/07 13:33:16;;;;;;;55.63;22.60;;;2.70;1.00;;;;;;5032718;28;20409;-52
2021/12/07 13:35:41;;;;;;;59.30;25.00;;;2.70;1.00;;;;;;5032899;28;21059;-55
2021/12/07 13:38:23;;;;;;;65.47;24.97;;;2.60;1.00;;;;;;5015837;28;20501;-55
2021/12/07 13:40:52;;;;;;;58.00;25.47;;;2.60;1.00;;;;;;5012947;28;20203;-55
2021/12/07 13:43:36;;;;;;;52.00;24.20;;;2.50;1.00;;;;;;5013111;28;20416;-54
2021/12/07 13:46:15;;;;;;;62.17;25.10;;;2.50;1.00;;;;;;5012762;28;20971;-55
2021/12/07 13:48:42;;;;;;;53.53;23.47;;;2.40;1.00;;;;;;5012645;28;20406;-54
2021/12/07 13:51:10;;;;;;;53.83;24.10;;;2.40;1.00;;;;;;5023366;28;20437;-54
2021/12/07 13:53:38;;;;;;;59.30;23.80;;;2.50;1.00;;;;;;5032401;28;20516;-54
2021/12/07 13:56:05;;;;;;;55.00;23.47;;;2.50;1.00;;;;;;5031976;28;20480;-54
2021/12/07 13:58:54;;;;;;;52.77;23.07;;;2.50;1.00;;;;;;5032291;28;20422;-54
2021/12/07 14:01:19;;;;;;;55.93;23.13;;;2.50;1.00;;;;;;5031860;28;20422;-52
2021/12/07 14:03:46;;;;;;;58.40;25.30;;;2.40;1.00;;;;;;5015365;28;20426;-52
2021/12/07 14:06:12;;;;;;;55.73;24.10;;;2.40;1.00;;;;;;5012540;28;20203;-52
2021/12/07 14:08:38;;;;;;;56.40;23.37;;;2.40;1.00;;;;;;5012288;28;20410;-52
2021/12/07 14:11:03;;;;;;;53.27;24.20;;;2.40;1.00;;;;;;5012403;28;20760;-52
2021/12/07 14:13:29;;;;;;;53.53;23.33;;;2.40;1.00;;;;;;5012289;28;20506;-52
2021/12/07 14:15:55;;;;;;;54.33;23.67;;;2.40;1.00;;;;;;5012020;28;20629;-52
2021/12/07 14:18:23;;;;;;;56.87;23.30;;;2.40;1.00;;;;;;5012171;28;20191;-54
2021/12/07 14:20:55;;;;;;;60.70;26.70;;;2.40;1.00;;;;;;5012412;28;20156;-52
2021/12/07 14:23:29;;;;;;;50.87;21.57;;;2.30;1.00;;;;;;5030563;28;20481;-52
2021/12/07 14:25:59;;;;;;;54.10;24.30;;;2.40;1.00;;;;;;5031820;28;20469;-52
2021/12/07 14:28:27;;;;;;;52.13;23.73;;;2.40;1.00;;;;;;5031193;28;20471;-53